Palm Springs, CA

11:47 PDT le 30 août 2016 (GMT -0700)
Palm Springs International | | Change Station

Alt. 476 ft 33.82 °N, 116.50 °W | Updated 54 minutes ago

Clear
Ciel dégagé
106 ° F
Paraît 106 ° F
N
7
Vent Variable Vent de SE

Aujourd'hui
Haut(e) -- | Bas -- ° F
--% Risque de précip.
Hier
Haut(e) -- | Bas -- ° F
Precip. -- pouce
Pression 29.78 pouce
Visibilité 10.0 Miles terrestres
Nuages Ciel dégagé
Point de rosée 43 ° F
Humidité 12%
Précipitations 0.00 pouce
Profondeur de la couche neigeuse Non disponible.
6:18 AM 7:13 PM
Lune descendante, 3% visible
METAR KPSP 301753Z 14006KT 10SM CLR 41/06 A2980 RMK AO2 SLP085 T04110061 10411 20278 50001
Pression 29.78 pouce
Visibilité 10.0 Miles terrestres
Nuages Ciel dégagé
Point de rosée 43 ° F
Humidité 12%
Précipitations 0.00 pouce
Profondeur de la couche neigeuse Non disponible.
6:18 AM 7:13 PM
Lune descendante, 3% visible
METAR KPSP 301753Z 14006KT 10SM CLR 41/06 A2980 RMK AO2 SLP085 T04110061 10411 20278 50001

10-Day Weather Forecast

Almanac

Astronomie

Aug. 30, 2016 Lever Coucher
Temps réel
Crépuscule civil
Crépuscule nautique
Crépuscule astronomique
Lune
Durée de lumière visible
Longueur du jour
Tomorrow will be .
, % of the Moon is Illuminated

Extrêmes aujourd'hui

State Highs State Lows

Community

WunderPhotos

Upload Photos

1,935,875 Photos téléchargées !

WunderBlog® & News

Nearby

Qualité de l'air

  Qualité de l'air Indice de la qualité de l'air Polluant
Not available.

Épaisseur de neige

Station Depth Altitude

Activité sismique

Ville Distance Mag. Time & Date
Minimum magnitude displayed is 2.5.

Températures des eaux côtières

Lieu Température

Stations

Stations météo à proximité

Emplacement de la station Température Refroidissement éolien Point de rosée Humidité Vent Precip. Alt. Mise à jour Type
                   

Watches & Warnings

There are currently no watches in effect.